CheckWX is a tool to help pilots better visualize weather data.  It is not intended as a substitute for an official pre-flight weather briefing.

21:00:59 UTC

EDVE METAR
Braunschweig Wolfsburg Airport
Germany
Current

1 hour ago

EDVE 171950Z 28012KT 9999 BKN042 BKN055 11/05 Q1018
Observed
Sep-17 @ 19:50 UTC
Wind
  • 280° at 12 KTS
Visibility
10,000+ meters
Flight Rules
VFR
Cloud Levels
  • Broken at 4,200' AGL
  • Broken at 5,500' AGL
Temperature
11°C / 52°F
Dewpoint
C / 41°F
Humidity
67%
Altimeter
30.06" Hg
Pressure
1017.92 hPa
Previous

2 hours ago

EDVE 171920Z 28011KT 250V310 9999 SCT043 SCT061 BKN070 11/05 Q1018
Observed
Sep-17 @ 19:20 UTC
Wind
  • 280° at 11 KTS
Visibility
10,000+ meters
Flight Rules
VFR
Cloud Levels
  • Scattered at 4,300' AGL
  • Scattered at 6,100' AGL
  • Broken at 7,000' AGL
Temperature
11°C / 52°F
Dewpoint
C / 41°F
Humidity
67%
Altimeter
30.06" Hg
Pressure
1017.92 hPa
Previous

2 hours ago

EDVE 171850Z 29010KT 9999 FEW041 11/06 Q1018
Observed
Sep-17 @ 18:50 UTC
Wind
  • 290° at 10 KTS
Visibility
10,000+ meters
Flight Rules
VFR
Cloud Levels
  • Few at 4,100' AGL
Temperature
11°C / 52°F
Dewpoint
C / 43°F
Humidity
72%
Altimeter
30.06" Hg
Pressure
1017.92 hPa